sensor_id;sensor_type;location;lat;lon;timestamp;P1;durP1;ratioP1;P2;durP2;ratioP2
21519;SDS011;10921;53.614;9.882;2024-01-30T00:00:24;34.47;;;27.13;;
21519;SDS011;10921;53.614;9.882;2024-01-30T00:02:50;37.38;;;26.23;;
21519;SDS011;10921;53.614;9.882;2024-01-30T00:05:17;35.50;;;27.83;;
21519;SDS011;10921;53.614;9.882;2024-01-30T00:07:44;35.30;;;27.33;;
21519;SDS011;10921;53.614;9.882;2024-01-30T00:10:11;32.53;;;25.90;;
21519;SDS011;10921;53.614;9.882;2024-01-30T00:12:37;30.55;;;26.73;;
21519;SDS011;10921;53.614;9.882;2024-01-30T00:15:04;33.55;;;27.17;;
21519;SDS011;10921;53.614;9.882;2024-01-30T00:17:31;30.55;;;25.27;;
21519;SDS011;10921;53.614;9.882;2024-01-30T00:19:57;34.30;;;26.95;;
21519;SDS011;10921;53.614;9.882;2024-01-30T00:22:24;32.30;;;26.63;;
21519;SDS011;10921;53.614;9.882;2024-01-30T00:24:51;36.03;;;27.83;;
21519;SDS011;10921;53.614;9.882;2024-01-30T00:27:17;35.03;;;26.10;;
21519;SDS011;10921;53.614;9.882;2024-01-30T00:29:44;38.70;;;28.02;;
21519;SDS011;10921;53.614;9.882;2024-01-30T00:32:11;33.55;;;27.60;;
21519;SDS011;10921;53.614;9.882;2024-01-30T00:34:38;36.47;;;28.10;;
21519;SDS011;10921;53.614;9.882;2024-01-30T00:37:04;35.42;;;27.40;;
21519;SDS011;10921;53.614;9.882;2024-01-30T00:39:31;31.15;;;25.80;;
21519;SDS011;10921;53.614;9.882;2024-01-30T00:41:57;37.83;;;27.95;;
21519;SDS011;10921;53.614;9.882;2024-01-30T00:44:24;34.83;;;28.15;;
21519;SDS011;10921;53.614;9.882;2024-01-30T00:46:51;35.53;;;27.70;;
21519;SDS011;10921;53.614;9.882;2024-01-30T00:49:17;34.35;;;27.45;;
21519;SDS011;10921;53.614;9.882;2024-01-30T00:51:44;35.28;;;27.02;;
21519;SDS011;10921;53.614;9.882;2024-01-30T00:54:10;36.97;;;26.58;;
21519;SDS011;10921;53.614;9.882;2024-01-30T00:56:37;33.85;;;27.02;;
21519;SDS011;10921;53.614;9.882;2024-01-30T00:59:03;34.15;;;27.23;;
21519;SDS011;10921;53.614;9.882;2024-01-30T01:01:30;37.30;;;27.73;;
21519;SDS011;10921;53.614;9.882;2024-01-30T01:03:57;36.47;;;27.80;;
21519;SDS011;10921;53.614;9.882;2024-01-30T01:06:24;30.83;;;27.05;;
21519;SDS011;10921;53.614;9.882;2024-01-30T01:08:51;35.17;;;26.23;;
21519;SDS011;10921;53.614;9.882;2024-01-30T01:11:18;34.55;;;27.48;;
21519;SDS011;10921;53.614;9.882;2024-01-30T01:13:44;38.88;;;26.77;;
21519;SDS011;10921;53.614;9.882;2024-01-30T01:16:11;37.05;;;27.40;;
21519;SDS011;10921;53.614;9.882;2024-01-30T01:18:38;34.65;;;27.67;;
21519;SDS011;10921;53.614;9.882;2024-01-30T01:21:04;35.95;;;27.70;;
21519;SDS011;10921;53.614;9.882;2024-01-30T01:23:31;33.33;;;28.15;;
21519;SDS011;10921;53.614;9.882;2024-01-30T01:25:58;30.55;;;26.83;;
21519;SDS011;10921;53.614;9.882;2024-01-30T01:28:26;31.25;;;26.63;;
21519;SDS011;10921;53.614;9.882;2024-01-30T01:30:53;34.67;;;27.65;;
21519;SDS011;10921;53.614;9.882;2024-01-30T01:33:25;33.53;;;27.92;;
21519;SDS011;10921;53.614;9.882;2024-01-30T01:35:52;33.42;;;26.88;;
21519;SDS011;10921;53.614;9.882;2024-01-30T01:38:19;30.98;;;26.95;;
21519;SDS011;10921;53.614;9.882;2024-01-30T01:40:46;33.50;;;27.17;;
21519;SDS011;10921;53.614;9.882;2024-01-30T01:43:12;35.90;;;26.60;;
21519;SDS011;10921;53.614;9.882;2024-01-30T01:45:39;34.45;;;26.23;;
21519;SDS011;10921;53.614;9.882;2024-01-30T01:48:05;32.72;;;25.80;;
21519;SDS011;10921;53.614;9.882;2024-01-30T01:50:34;30.10;;;25.65;;
21519;SDS011;10921;53.614;9.882;2024-01-30T01:53:03;32.30;;;25.88;;
21519;SDS011;10921;53.614;9.882;2024-01-30T01:55:29;29.73;;;25.67;;
21519;SDS011;10921;53.614;9.882;2024-01-30T01:57:58;30.27;;;26.20;;
21519;SDS011;10921;53.614;9.882;2024-01-30T02:00:25;30.80;;;25.58;;
21519;SDS011;10921;53.614;9.882;2024-01-30T02:02:51;28.10;;;24.50;;
21519;SDS011;10921;53.614;9.882;2024-01-30T02:05:21;27.55;;;24.45;;
21519;SDS011;10921;53.614;9.882;2024-01-30T02:07:47;32.35;;;26.15;;
21519;SDS011;10921;53.614;9.882;2024-01-30T02:10:14;32.45;;;25.63;;
21519;SDS011;10921;53.614;9.882;2024-01-30T02:12:42;34.30;;;26.08;;
21519;SDS011;10921;53.614;9.882;2024-01-30T02:15:08;30.17;;;25.75;;
21519;SDS011;10921;53.614;9.882;2024-01-30T02:17:39;30.65;;;25.88;;
21519;SDS011;10921;53.614;9.882;2024-01-30T02:20:05;29.48;;;25.75;;
21519;SDS011;10921;53.614;9.882;2024-01-30T02:22:33;28.63;;;24.77;;
21519;SDS011;10921;53.614;9.882;2024-01-30T02:25:01;29.13;;;24.95;;
21519;SDS011;10921;53.614;9.882;2024-01-30T02:27:27;30.17;;;24.70;;
21519;SDS011;10921;53.614;9.882;2024-01-30T02:29:54;35.55;;;26.52;;
21519;SDS011;10921;53.614;9.882;2024-01-30T02:32:21;28.50;;;25.42;;
21519;SDS011;10921;53.614;9.882;2024-01-30T02:34:47;30.52;;;24.38;;
21519;SDS011;10921;53.614;9.882;2024-01-30T02:37:13;32.20;;;25.73;;
21519;SDS011;10921;53.614;9.882;2024-01-30T02:39:40;28.33;;;25.30;;
21519;SDS011;10921;53.614;9.882;2024-01-30T02:42:07;30.83;;;24.75;;
21519;SDS011;10921;53.614;9.882;2024-01-30T02:44:33;33.28;;;24.45;;
21519;SDS011;10921;53.614;9.882;2024-01-30T02:47:06;31.55;;;25.13;;
21519;SDS011;10921;53.614;9.882;2024-01-30T02:49:32;31.35;;;25.73;;
21519;SDS011;10921;53.614;9.882;2024-01-30T02:51:59;29.45;;;23.83;;
21519;SDS011;10921;53.614;9.882;2024-01-30T02:54:26;27.40;;;24.30;;
21519;SDS011;10921;53.614;9.882;2024-01-30T02:56:53;27.33;;;21.85;;
21519;SDS011;10921;53.614;9.882;2024-01-30T02:59:20;31.63;;;25.35;;
21519;SDS011;10921;53.614;9.882;2024-01-30T03:01:46;29.88;;;23.67;;
21519;SDS011;10921;53.614;9.882;2024-01-30T03:04:14;32.53;;;23.98;;
21519;SDS011;10921;53.614;9.882;2024-01-30T03:06:44;26.75;;;23.20;;
21519;SDS011;10921;53.614;9.882;2024-01-30T03:09:13;31.70;;;24.67;;
21519;SDS011;10921;53.614;9.882;2024-01-30T03:11:39;29.55;;;23.70;;
21519;SDS011;10921;53.614;9.882;2024-01-30T03:14:06;27.20;;;24.23;;
21519;SDS011;10921;53.614;9.882;2024-01-30T03:16:34;29.75;;;24.48;;
21519;SDS011;10921;53.614;9.882;2024-01-30T03:19:00;27.20;;;24.17;;
21519;SDS011;10921;53.614;9.882;2024-01-30T03:21:28;26.65;;;23.88;;
21519;SDS011;10921;53.614;9.882;2024-01-30T03:23:54;28.05;;;24.95;;
21519;SDS011;10921;53.614;9.882;2024-01-30T03:26:21;27.98;;;23.95;;
21519;SDS011;10921;53.614;9.882;2024-01-30T03:28:48;29.92;;;25.27;;
21519;SDS011;10921;53.614;9.882;2024-01-30T03:31:15;32.67;;;25.02;;
21519;SDS011;10921;53.614;9.882;2024-01-30T03:33:42;28.70;;;24.40;;
21519;SDS011;10921;53.614;9.882;2024-01-30T03:36:08;29.48;;;25.02;;
21519;SDS011;10921;53.614;9.882;2024-01-30T03:38:35;27.63;;;24.67;;
21519;SDS011;10921;53.614;9.882;2024-01-30T03:41:02;28.83;;;24.30;;
21519;SDS011;10921;53.614;9.882;2024-01-30T03:43:29;31.42;;;24.55;;
21519;SDS011;10921;53.614;9.882;2024-01-30T03:45:55;25.75;;;23.05;;
21519;SDS011;10921;53.614;9.882;2024-01-30T03:48:22;26.70;;;23.90;;
21519;SDS011;10921;53.614;9.882;2024-01-30T03:50:49;25.05;;;22.63;;
21519;SDS011;10921;53.614;9.882;2024-01-30T03:53:15;27.90;;;24.73;;
21519;SDS011;10921;53.614;9.882;2024-01-30T03:55:42;28.02;;;24.23;;
21519;SDS011;10921;53.614;9.882;2024-01-30T03:58:11;26.17;;;23.40;;
21519;SDS011;10921;53.614;9.882;2024-01-30T04:00:38;28.80;;;23.52;;
21519;SDS011;10921;53.614;9.882;2024-01-30T04:03:04;31.50;;;25.83;;
21519;SDS011;10921;53.614;9.882;2024-01-30T04:05:31;30.02;;;24.60;;
21519;SDS011;10921;53.614;9.882;2024-01-30T04:07:58;29.17;;;24.45;;
21519;SDS011;10921;53.614;9.882;2024-01-30T04:10:25;28.63;;;24.95;;
21519;SDS011;10921;53.614;9.882;2024-01-30T04:12:52;29.23;;;24.63;;
21519;SDS011;10921;53.614;9.882;2024-01-30T04:15:20;28.33;;;25.35;;
21519;SDS011;10921;53.614;9.882;2024-01-30T04:17:46;31.17;;;25.70;;
21519;SDS011;10921;53.614;9.882;2024-01-30T04:20:14;29.80;;;26.15;;
21519;SDS011;10921;53.614;9.882;2024-01-30T04:22:44;27.95;;;24.75;;
21519;SDS011;10921;53.614;9.882;2024-01-30T04:25:12;29.33;;;25.63;;
21519;SDS011;10921;53.614;9.882;2024-01-30T04:27:39;29.00;;;25.40;;
21519;SDS011;10921;53.614;9.882;2024-01-30T04:30:06;32.42;;;27.20;;
21519;SDS011;10921;53.614;9.882;2024-01-30T04:32:33;29.10;;;25.60;;
21519;SDS011;10921;53.614;9.882;2024-01-30T04:34:59;27.83;;;24.75;;
21519;SDS011;10921;53.614;9.882;2024-01-30T04:37:26;32.55;;;25.58;;
21519;SDS011;10921;53.614;9.882;2024-01-30T04:39:53;29.42;;;25.50;;
21519;SDS011;10921;53.614;9.882;2024-01-30T04:42:20;31.30;;;26.73;;
21519;SDS011;10921;53.614;9.882;2024-01-30T04:44:47;32.95;;;25.95;;
21519;SDS011;10921;53.614;9.882;2024-01-30T04:47:13;32.30;;;26.33;;
21519;SDS011;10921;53.614;9.882;2024-01-30T04:49:40;33.40;;;25.85;;
21519;SDS011;10921;53.614;9.882;2024-01-30T04:52:07;28.25;;;24.88;;
21519;SDS011;10921;53.614;9.882;2024-01-30T04:54:34;33.92;;;24.55;;
21519;SDS011;10921;53.614;9.882;2024-01-30T04:57:01;29.80;;;25.33;;
21519;SDS011;10921;53.614;9.882;2024-01-30T04:59:28;36.20;;;27.05;;
21519;SDS011;10921;53.614;9.882;2024-01-30T05:01:55;29.25;;;25.70;;
21519;SDS011;10921;53.614;9.882;2024-01-30T05:04:22;30.88;;;26.13;;
21519;SDS011;10921;53.614;9.882;2024-01-30T05:06:49;32.15;;;26.45;;
21519;SDS011;10921;53.614;9.882;2024-01-30T05:09:15;30.58;;;25.70;;
21519;SDS011;10921;53.614;9.882;2024-01-30T05:11:42;28.17;;;25.08;;
21519;SDS011;10921;53.614;9.882;2024-01-30T05:14:08;32.22;;;26.80;;
21519;SDS011;10921;53.614;9.882;2024-01-30T05:16:35;32.67;;;26.25;;
21519;SDS011;10921;53.614;9.882;2024-01-30T05:19:02;32.50;;;26.75;;
21519;SDS011;10921;53.614;9.882;2024-01-30T05:21:29;31.23;;;26.83;;
21519;SDS011;10921;53.614;9.882;2024-01-30T05:23:55;29.83;;;26.58;;
21519;SDS011;10921;53.614;9.882;2024-01-30T05:26:22;34.17;;;26.85;;
21519;SDS011;10921;53.614;9.882;2024-01-30T05:28:49;30.42;;;26.55;;
21519;SDS011;10921;53.614;9.882;2024-01-30T05:31:15;32.50;;;26.98;;
21519;SDS011;10921;53.614;9.882;2024-01-30T05:33:42;33.70;;;27.00;;
21519;SDS011;10921;53.614;9.882;2024-01-30T05:36:11;34.97;;;27.88;;
21519;SDS011;10921;53.614;9.882;2024-01-30T05:38:38;30.63;;;25.80;;
21519;SDS011;10921;53.614;9.882;2024-01-30T05:41:05;33.13;;;27.70;;
21519;SDS011;10921;53.614;9.882;2024-01-30T05:43:32;30.63;;;27.33;;
21519;SDS011;10921;53.614;9.882;2024-01-30T05:45:58;31.52;;;27.23;;
21519;SDS011;10921;53.614;9.882;2024-01-30T05:48:25;38.83;;;28.08;;
21519;SDS011;10921;53.614;9.882;2024-01-30T05:50:51;41.65;;;28.05;;
21519;SDS011;10921;53.614;9.882;2024-01-30T05:53:18;37.10;;;27.92;;
21519;SDS011;10921;53.614;9.882;2024-01-30T05:55:45;38.65;;;28.48;;
21519;SDS011;10921;53.614;9.882;2024-01-30T05:58:12;34.58;;;27.75;;
21519;SDS011;10921;53.614;9.882;2024-01-30T06:00:38;34.85;;;27.00;;
21519;SDS011;10921;53.614;9.882;2024-01-30T06:03:05;34.55;;;28.55;;
21519;SDS011;10921;53.614;9.882;2024-01-30T06:05:31;34.83;;;29.83;;
21519;SDS011;10921;53.614;9.882;2024-01-30T06:07:58;35.67;;;27.25;;
21519;SDS011;10921;53.614;9.882;2024-01-30T06:10:24;40.63;;;27.88;;
21519;SDS011;10921;53.614;9.882;2024-01-30T06:12:51;34.80;;;28.23;;
21519;SDS011;10921;53.614;9.882;2024-01-30T06:15:18;36.13;;;28.70;;
21519;SDS011;10921;53.614;9.882;2024-01-30T06:17:44;45.22;;;31.52;;
21519;SDS011;10921;53.614;9.882;2024-01-30T06:20:11;35.30;;;28.70;;
21519;SDS011;10921;53.614;9.882;2024-01-30T06:22:37;36.35;;;29.02;;
21519;SDS011;10921;53.614;9.882;2024-01-30T06:25:04;35.63;;;29.38;;
21519;SDS011;10921;53.614;9.882;2024-01-30T06:27:31;35.25;;;28.00;;
21519;SDS011;10921;53.614;9.882;2024-01-30T06:29:57;39.03;;;29.40;;
21519;SDS011;10921;53.614;9.882;2024-01-30T06:32:24;35.70;;;27.77;;
21519;SDS011;10921;53.614;9.882;2024-01-30T06:34:51;35.97;;;28.45;;
21519;SDS011;10921;53.614;9.882;2024-01-30T06:37:17;36.47;;;28.05;;
21519;SDS011;10921;53.614;9.882;2024-01-30T06:39:44;35.22;;;29.30;;
21519;SDS011;10921;53.614;9.882;2024-01-30T06:42:11;35.83;;;28.15;;
21519;SDS011;10921;53.614;9.882;2024-01-30T06:44:38;39.55;;;30.05;;
21519;SDS011;10921;53.614;9.882;2024-01-30T06:47:04;32.88;;;28.38;;
21519;SDS011;10921;53.614;9.882;2024-01-30T06:49:31;36.13;;;30.15;;
21519;SDS011;10921;53.614;9.882;2024-01-30T06:51:58;34.38;;;28.70;;
21519;SDS011;10921;53.614;9.882;2024-01-30T06:54:24;38.28;;;28.50;;
21519;SDS011;10921;53.614;9.882;2024-01-30T06:56:51;37.85;;;26.52;;
21519;SDS011;10921;53.614;9.882;2024-01-30T06:59:17;32.67;;;25.95;;
21519;SDS011;10921;53.614;9.882;2024-01-30T07:01:44;35.03;;;26.60;;
21519;SDS011;10921;53.614;9.882;2024-01-30T07:04:10;35.90;;;26.95;;
21519;SDS011;10921;53.614;9.882;2024-01-30T07:06:37;35.70;;;26.65;;
21519;SDS011;10921;53.614;9.882;2024-01-30T07:09:04;38.30;;;26.92;;
21519;SDS011;10921;53.614;9.882;2024-01-30T07:11:31;29.60;;;25.65;;
21519;SDS011;10921;53.614;9.882;2024-01-30T07:13:58;35.10;;;25.92;;
21519;SDS011;10921;53.614;9.882;2024-01-30T07:16:25;40.20;;;28.02;;
21519;SDS011;10921;53.614;9.882;2024-01-30T07:18:51;36.13;;;29.10;;
21519;SDS011;10921;53.614;9.882;2024-01-30T07:21:18;43.35;;;29.27;;
21519;SDS011;10921;53.614;9.882;2024-01-30T07:23:48;36.42;;;26.75;;
21519;SDS011;10921;53.614;9.882;2024-01-30T07:26:14;36.40;;;26.98;;
21519;SDS011;10921;53.614;9.882;2024-01-30T07:28:41;34.03;;;27.10;;
21519;SDS011;10921;53.614;9.882;2024-01-30T07:31:07;32.47;;;26.70;;
21519;SDS011;10921;53.614;9.882;2024-01-30T07:33:34;39.47;;;27.30;;
21519;SDS011;10921;53.614;9.882;2024-01-30T07:36:00;33.75;;;27.30;;
21519;SDS011;10921;53.614;9.882;2024-01-30T07:38:27;32.08;;;27.10;;
21519;SDS011;10921;53.614;9.882;2024-01-30T07:40:53;33.50;;;27.13;;
21519;SDS011;10921;53.614;9.882;2024-01-30T07:43:20;37.30;;;26.73;;
21519;SDS011;10921;53.614;9.882;2024-01-30T07:45:46;34.15;;;25.35;;
21519;SDS011;10921;53.614;9.882;2024-01-30T07:48:13;37.92;;;26.52;;
21519;SDS011;10921;53.614;9.882;2024-01-30T07:50:40;35.33;;;25.85;;
21519;SDS011;10921;53.614;9.882;2024-01-30T07:53:07;35.83;;;26.83;;
21519;SDS011;10921;53.614;9.882;2024-01-30T07:55:34;43.47;;;29.92;;
21519;SDS011;10921;53.614;9.882;2024-01-30T08:01:26;33.35;;;24.27;;
21519;SDS011;10921;53.614;9.882;2024-01-30T08:03:52;32.40;;;26.73;;
21519;SDS011;10921;53.614;9.882;2024-01-30T08:06:19;37.05;;;26.88;;
21519;SDS011;10921;53.614;9.882;2024-01-30T08:08:46;38.83;;;26.63;;
21519;SDS011;10921;53.614;9.882;2024-01-30T08:11:12;39.45;;;27.90;;
21519;SDS011;10921;53.614;9.882;2024-01-30T08:13:39;36.30;;;28.30;;
21519;SDS011;10921;53.614;9.882;2024-01-30T08:16:05;36.90;;;27.30;;
21519;SDS011;10921;53.614;9.882;2024-01-30T08:18:33;39.47;;;28.15;;
21519;SDS011;10921;53.614;9.882;2024-01-30T08:20:59;43.10;;;27.65;;
21519;SDS011;10921;53.614;9.882;2024-01-30T08:23:26;41.58;;;28.52;;
21519;SDS011;10921;53.614;9.882;2024-01-30T08:25:52;45.75;;;28.92;;
21519;SDS011;10921;53.614;9.882;2024-01-30T08:28:18;42.45;;;29.33;;
21519;SDS011;10921;53.614;9.882;2024-01-30T08:30:47;45.35;;;29.10;;
21519;SDS011;10921;53.614;9.882;2024-01-30T08:33:14;37.90;;;27.10;;
21519;SDS011;10921;53.614;9.882;2024-01-30T08:35:41;40.17;;;29.38;;
21519;SDS011;10921;53.614;9.882;2024-01-30T08:38:08;46.88;;;29.85;;
21519;SDS011;10921;53.614;9.882;2024-01-30T08:40:35;41.70;;;30.95;;
21519;SDS011;10921;53.614;9.882;2024-01-30T08:43:01;47.15;;;29.35;;
21519;SDS011;10921;53.614;9.882;2024-01-30T08:45:28;43.38;;;29.63;;
21519;SDS011;10921;53.614;9.882;2024-01-30T08:47:55;43.05;;;30.05;;
21519;SDS011;10921;53.614;9.882;2024-01-30T08:50:22;44.45;;;30.30;;
21519;SDS011;10921;53.614;9.882;2024-01-30T08:52:48;41.88;;;29.77;;
21519;SDS011;10921;53.614;9.882;2024-01-30T08:55:15;41.00;;;28.88;;
21519;SDS011;10921;53.614;9.882;2024-01-30T08:57:42;41.55;;;29.98;;
21519;SDS011;10921;53.614;9.882;2024-01-30T09:00:09;45.60;;;33.00;;
21519;SDS011;10921;53.614;9.882;2024-01-30T09:02:36;50.97;;;31.92;;
21519;SDS011;10921;53.614;9.882;2024-01-30T09:05:03;55.60;;;33.63;;
21519;SDS011;10921;53.614;9.882;2024-01-30T09:07:30;51.10;;;33.38;;
21519;SDS011;10921;53.614;9.882;2024-01-30T09:09:56;46.85;;;32.88;;
21519;SDS011;10921;53.614;9.882;2024-01-30T09:12:23;53.75;;;33.35;;
21519;SDS011;10921;53.614;9.882;2024-01-30T09:14:50;42.15;;;32.60;;
21519;SDS011;10921;53.614;9.882;2024-01-30T09:17:17;50.88;;;33.38;;
21519;SDS011;10921;53.614;9.882;2024-01-30T09:19:43;46.58;;;33.05;;
21519;SDS011;10921;53.614;9.882;2024-01-30T09:22:10;39.88;;;31.17;;
21519;SDS011;10921;53.614;9.882;2024-01-30T09:24:36;44.13;;;32.85;;
21519;SDS011;10921;53.614;9.882;2024-01-30T09:27:03;50.95;;;33.47;;
21519;SDS011;10921;53.614;9.882;2024-01-30T09:29:30;44.85;;;31.38;;
21519;SDS011;10921;53.614;9.882;2024-01-30T09:31:56;50.05;;;32.53;;
21519;SDS011;10921;53.614;9.882;2024-01-30T09:34:24;40.70;;;31.10;;
21519;SDS011;10921;53.614;9.882;2024-01-30T09:36:50;40.10;;;31.15;;
21519;SDS011;10921;53.614;9.882;2024-01-30T09:39:17;45.25;;;30.90;;
21519;SDS011;10921;53.614;9.882;2024-01-30T09:41:49;46.78;;;32.05;;
21519;SDS011;10921;53.614;9.882;2024-01-30T09:44:22;41.65;;;30.50;;
21519;SDS011;10921;53.614;9.882;2024-01-30T09:46:50;37.83;;;30.33;;
21519;SDS011;10921;53.614;9.882;2024-01-30T09:49:17;40.25;;;31.30;;
21519;SDS011;10921;53.614;9.882;2024-01-30T09:51:46;41.20;;;31.60;;
21519;SDS011;10921;53.614;9.882;2024-01-30T09:54:14;42.25;;;31.27;;
21519;SDS011;10921;53.614;9.882;2024-01-30T09:56:42;39.78;;;30.15;;
21519;SDS011;10921;53.614;9.882;2024-01-30T09:59:08;39.08;;;30.10;;
21519;SDS011;10921;53.614;9.882;2024-01-30T10:01:35;37.40;;;29.35;;
21519;SDS011;10921;53.614;9.882;2024-01-30T10:04:03;39.47;;;29.35;;
21519;SDS011;10921;53.614;9.882;2024-01-30T10:06:31;41.60;;;31.00;;
21519;SDS011;10921;53.614;9.882;2024-01-30T10:08:57;37.88;;;29.27;;
21519;SDS011;10921;53.614;9.882;2024-01-30T10:11:24;36.70;;;29.48;;
21519;SDS011;10921;53.614;9.882;2024-01-30T10:13:51;33.38;;;29.05;;
21519;SDS011;10921;53.614;9.882;2024-01-30T10:16:17;34.40;;;28.98;;
21519;SDS011;10921;53.614;9.882;2024-01-30T10:18:44;40.28;;;29.77;;
21519;SDS011;10921;53.614;9.882;2024-01-30T10:21:11;40.47;;;29.50;;
21519;SDS011;10921;53.614;9.882;2024-01-30T10:23:37;38.90;;;29.00;;
21519;SDS011;10921;53.614;9.882;2024-01-30T10:26:04;36.67;;;28.15;;
21519;SDS011;10921;53.614;9.882;2024-01-30T10:28:31;32.13;;;28.08;;
21519;SDS011;10921;53.614;9.882;2024-01-30T10:30:58;36.70;;;28.95;;
21519;SDS011;10921;53.614;9.882;2024-01-30T10:33:32;36.35;;;27.42;;
21519;SDS011;10921;53.614;9.882;2024-01-30T10:36:03;34.33;;;27.33;;
21519;SDS011;10921;53.614;9.882;2024-01-30T10:38:32;35.53;;;27.73;;
21519;SDS011;10921;53.614;9.882;2024-01-30T10:41:00;40.35;;;28.20;;
21519;SDS011;10921;53.614;9.882;2024-01-30T10:43:36;34.10;;;27.05;;
21519;SDS011;10921;53.614;9.882;2024-01-30T10:46:18;31.73;;;27.10;;
21519;SDS011;10921;53.614;9.882;2024-01-30T10:48:56;30.15;;;26.73;;
21519;SDS011;10921;53.614;9.882;2024-01-30T10:51:27;35.42;;;26.85;;
21519;SDS011;10921;53.614;9.882;2024-01-30T10:53:55;33.17;;;27.42;;
21519;SDS011;10921;53.614;9.882;2024-01-30T10:56:24;33.97;;;26.77;;
21519;SDS011;10921;53.614;9.882;2024-01-30T10:58:52;32.03;;;27.83;;
21519;SDS011;10921;53.614;9.882;2024-01-30T11:01:20;30.95;;;26.83;;
21519;SDS011;10921;53.614;9.882;2024-01-30T11:03:51;32.92;;;25.98;;
21519;SDS011;10921;53.614;9.882;2024-01-30T11:06:21;30.55;;;26.42;;
21519;SDS011;10921;53.614;9.882;2024-01-30T11:09:01;33.50;;;27.38;;
21519;SDS011;10921;53.614;9.882;2024-01-30T11:11:51;32.17;;;26.58;;
21519;SDS011;10921;53.614;9.882;2024-01-30T11:14:25;32.38;;;26.50;;
21519;SDS011;10921;53.614;9.882;2024-01-30T11:16:52;31.75;;;26.33;;
21519;SDS011;10921;53.614;9.882;2024-01-30T11:19:22;31.45;;;26.73;;
21519;SDS011;10921;53.614;9.882;2024-01-30T11:21:54;30.88;;;25.20;;
21519;SDS011;10921;53.614;9.882;2024-01-30T11:24:20;38.17;;;25.20;;
21519;SDS011;10921;53.614;9.882;2024-01-30T11:26:56;30.88;;;26.13;;
21519;SDS011;10921;53.614;9.882;2024-01-30T11:29:27;31.83;;;27.02;;
21519;SDS011;10921;53.614;9.882;2024-01-30T11:31:55;28.70;;;25.60;;
21519;SDS011;10921;53.614;9.882;2024-01-30T11:34:22;30.13;;;25.45;;
21519;SDS011;10921;53.614;9.882;2024-01-30T11:36:56;31.40;;;25.67;;
21519;SDS011;10921;53.614;9.882;2024-01-30T11:39:29;34.97;;;25.73;;
21519;SDS011;10921;53.614;9.882;2024-01-30T11:41:56;30.83;;;24.95;;
21519;SDS011;10921;53.614;9.882;2024-01-30T11:44:24;28.33;;;24.17;;
21519;SDS011;10921;53.614;9.882;2024-01-30T11:46:52;27.10;;;24.38;;
21519;SDS011;10921;53.614;9.882;2024-01-30T11:49:18;29.77;;;25.63;;
21519;SDS011;10921;53.614;9.882;2024-01-30T11:51:45;28.75;;;24.63;;
21519;SDS011;10921;53.614;9.882;2024-01-30T11:54:15;32.43;;;25.63;;
21519;SDS011;10921;53.614;9.882;2024-01-30T11:56:42;29.95;;;25.27;;
21519;SDS011;10921;53.614;9.882;2024-01-30T11:59:09;30.15;;;24.98;;
21519;SDS011;10921;53.614;9.882;2024-01-30T12:01:36;27.50;;;24.50;;
21519;SDS011;10921;53.614;9.882;2024-01-30T12:04:02;30.90;;;25.65;;
21519;SDS011;10921;53.614;9.882;2024-01-30T12:06:33;28.58;;;25.63;;
21519;SDS011;10921;53.614;9.882;2024-01-30T12:09:01;30.73;;;26.67;;
21519;SDS011;10921;53.614;9.882;2024-01-30T12:11:32;36.90;;;26.13;;
21519;SDS011;10921;53.614;9.882;2024-01-30T12:13:58;30.55;;;25.67;;
21519;SDS011;10921;53.614;9.882;2024-01-30T12:16:25;32.28;;;25.85;;
21519;SDS011;10921;53.614;9.882;2024-01-30T12:18:59;33.17;;;25.23;;
21519;SDS011;10921;53.614;9.882;2024-01-30T12:21:27;30.65;;;25.55;;
21519;SDS011;10921;53.614;9.882;2024-01-30T12:23:56;28.25;;;24.75;;
21519;SDS011;10921;53.614;9.882;2024-01-30T12:26:23;27.63;;;24.73;;
21519;SDS011;10921;53.614;9.882;2024-01-30T12:28:55;32.53;;;25.35;;
21519;SDS011;10921;53.614;9.882;2024-01-30T12:31:25;36.47;;;27.27;;
21519;SDS011;10921;53.614;9.882;2024-01-30T12:33:54;34.58;;;27.90;;
21519;SDS011;10921;53.614;9.882;2024-01-30T12:36:22;28.02;;;25.13;;
21519;SDS011;10921;53.614;9.882;2024-01-30T12:38:49;32.25;;;25.77;;
21519;SDS011;10921;53.614;9.882;2024-01-30T12:41:16;30.63;;;27.35;;
21519;SDS011;10921;53.614;9.882;2024-01-30T12:43:43;27.60;;;24.45;;
21519;SDS011;10921;53.614;9.882;2024-01-30T12:46:10;29.90;;;25.80;;
21519;SDS011;10921;53.614;9.882;2024-01-30T12:48:36;28.77;;;25.60;;
21519;SDS011;10921;53.614;9.882;2024-01-30T12:51:04;30.70;;;25.05;;
21519;SDS011;10921;53.614;9.882;2024-01-30T12:53:30;31.23;;;25.55;;
21519;SDS011;10921;53.614;9.882;2024-01-30T12:55:57;31.52;;;25.15;;
21519;SDS011;10921;53.614;9.882;2024-01-30T12:58:24;31.33;;;24.63;;
21519;SDS011;10921;53.614;9.882;2024-01-30T13:00:50;38.25;;;26.00;;
21519;SDS011;10921;53.614;9.882;2024-01-30T13:03:18;33.60;;;25.35;;
21519;SDS011;10921;53.614;9.882;2024-01-30T13:05:44;34.25;;;25.13;;
21519;SDS011;10921;53.614;9.882;2024-01-30T13:08:11;36.95;;;25.52;;
21519;SDS011;10921;53.614;9.882;2024-01-30T13:10:37;28.33;;;24.73;;
21519;SDS011;10921;53.614;9.882;2024-01-30T13:13:04;30.33;;;25.55;;
21519;SDS011;10921;53.614;9.882;2024-01-30T13:15:34;31.75;;;25.55;;
21519;SDS011;10921;53.614;9.882;2024-01-30T13:18:01;32.97;;;25.83;;
21519;SDS011;10921;53.614;9.882;2024-01-30T13:20:28;32.30;;;26.73;;
21519;SDS011;10921;53.614;9.882;2024-01-30T13:22:55;30.98;;;24.48;;
21519;SDS011;10921;53.614;9.882;2024-01-30T13:25:22;34.55;;;26.05;;
21519;SDS011;10921;53.614;9.882;2024-01-30T13:27:48;30.77;;;25.05;;
21519;SDS011;10921;53.614;9.882;2024-01-30T13:30:15;32.28;;;25.40;;
21519;SDS011;10921;53.614;9.882;2024-01-30T13:32:41;33.53;;;26.00;;
21519;SDS011;10921;53.614;9.882;2024-01-30T13:35:10;33.38;;;25.00;;
21519;SDS011;10921;53.614;9.882;2024-01-30T13:37:37;32.83;;;24.92;;
21519;SDS011;10921;53.614;9.882;2024-01-30T13:40:04;34.38;;;25.25;;
21519;SDS011;10921;53.614;9.882;2024-01-30T13:42:39;32.72;;;24.33;;
21519;SDS011;10921;53.614;9.882;2024-01-30T13:45:06;33.28;;;25.15;;
21519;SDS011;10921;53.614;9.882;2024-01-30T13:47:34;37.00;;;24.95;;
21519;SDS011;10921;53.614;9.882;2024-01-30T13:50:00;31.17;;;25.08;;
21519;SDS011;10921;53.614;9.882;2024-01-30T13:52:27;29.20;;;25.52;;
21519;SDS011;10921;53.614;9.882;2024-01-30T13:55:00;30.88;;;25.13;;
21519;SDS011;10921;53.614;9.882;2024-01-30T13:57:27;31.77;;;25.58;;
21519;SDS011;10921;53.614;9.882;2024-01-30T13:59:54;29.08;;;25.45;;
21519;SDS011;10921;53.614;9.882;2024-01-30T14:02:20;27.02;;;24.08;;
21519;SDS011;10921;53.614;9.882;2024-01-30T14:04:47;33.13;;;25.20;;
21519;SDS011;10921;53.614;9.882;2024-01-30T14:07:13;29.23;;;24.45;;
21519;SDS011;10921;53.614;9.882;2024-01-30T14:09:40;31.45;;;25.65;;
21519;SDS011;10921;53.614;9.882;2024-01-30T14:12:07;31.63;;;25.15;;
21519;SDS011;10921;53.614;9.882;2024-01-30T14:14:34;32.60;;;24.58;;
21519;SDS011;10921;53.614;9.882;2024-01-30T14:17:00;37.72;;;25.83;;
21519;SDS011;10921;53.614;9.882;2024-01-30T14:19:29;33.65;;;25.27;;
21519;SDS011;10921;53.614;9.882;2024-01-30T14:21:56;31.48;;;24.77;;
21519;SDS011;10921;53.614;9.882;2024-01-30T14:24:22;31.20;;;24.67;;